Terminal Aerodrome Forecast
Issued by NWS

Home | Current Version | Previous Version | Text Only | Print | Product List | Glossary On
Versions: 1 2 3 4 5 6 7 8 9 10 11 12 13 14 15 16 17 18 19 20 21 22 23 24 25 26
000
FTUS46 KMTR 192114 AAA
TAFSFO
TAF AMD
KSFO 192114Z 1921/2024 25014KT P6SM FEW022 SCT030 BKN040
     FM200300 24012KT 4SM -RA BR BKN025 OVC035
     FM200630 22018G28KT 6SM -SHRA BR BKN025 BKN040
     FM201100 24010KT P6SM BKN030 BKN050
     FM201800 28012KT P6SM FEW030 SCT050
     FM202200 28016G24KT P6SM FEW035 SCT050=

USA.gov is the U.S. government's official web portal to all federal, state and local government web resources and services.